Time;durP1;ratioP1;P1;durP2;ratioP2;P2;SDS_P1;SDS_P2;PMS_P1;PMS_P2;Temp;Humidity;BMP_temperature;BMP_pressure;BME280_temperature;BME280_humidity;BME280_pressure;Samples;Min_cycle;Max_cycle;Signal;HPM_P1;HPM_P2
2021/10/30 00:01:59;;;;;;;5.82;3.53;;;13.60;94.20;;;;;;4996392;28;20045;-75
2021/10/30 00:04:25;;;;;;;5.03;2.65;;;13.60;94.30;;;;;;5048040;28;20493;-76
2021/10/30 00:06:52;;;;;;;8.50;3.22;;;13.60;94.50;;;;;;5040252;28;20057;-75
2021/10/30 00:09:17;;;;;;;4.25;3.33;;;13.60;94.30;;;;;;5029507;28;20033;-75
2021/10/30 00:11:43;;;;;;;3.50;2.92;;;13.70;94.30;;;;;;5011714;28;20453;-75
2021/10/30 00:14:09;;;;;;;4.55;2.90;;;13.70;94.20;;;;;;5049076;28;20032;-76
2021/10/30 00:16:34;;;;;;;5.57;2.95;;;13.70;94.20;;;;;;5028398;28;20023;-76
2021/10/30 00:19:00;;;;;;;5.93;2.80;;;13.70;94.20;;;;;;5011834;28;20551;-76
2021/10/30 00:21:26;;;;;;;3.63;2.88;;;13.70;94.20;;;;;;4998797;28;20139;-75
2021/10/30 00:23:51;;;;;;;6.00;3.08;;;13.70;94.20;;;;;;5029636;28;20026;-76
2021/10/30 00:26:17;;;;;;;5.38;2.60;;;13.70;94.20;;;;;;5014145;28;20025;-75
2021/10/30 00:28:43;;;;;;;5.43;2.90;;;13.70;94.20;;;;;;5029619;28;20063;-76
2021/10/30 00:31:09;;;;;;;5.03;2.97;;;13.70;94.20;;;;;;4998079;28;20082;-75
2021/10/30 00:33:34;;;;;;;7.75;2.88;;;13.70;94.10;;;;;;5011605;28;20490;-75
2021/10/30 00:36:00;;;;;;;3.50;2.88;;;13.70;94.10;;;;;;5030348;28;20078;-76
2021/10/30 00:38:25;;;;;;;3.55;2.85;;;13.80;94.10;;;;;;5029013;28;20089;-76
2021/10/30 00:40:51;;;;;;;5.00;2.50;;;13.70;94.00;;;;;;5026078;28;20052;-76
2021/10/30 00:43:17;;;;;;;5.57;2.70;;;13.70;94.30;;;;;;5019397;28;20044;-76
2021/10/30 00:45:47;;;;;;;4.45;2.75;;;13.70;94.00;;;;;;5011453;28;20443;-76
2021/10/30 00:48:16;;;;;;;7.80;2.88;;;13.70;94.00;;;;;;5018557;28;20506;-75
2021/10/30 00:50:42;;;;;;;4.00;2.55;;;13.70;94.00;;;;;;5031174;28;20428;-75
2021/10/30 00:53:10;;;;;;;4.70;3.05;;;13.70;94.00;;;;;;5041975;28;20063;-76
2021/10/30 00:55:39;;;;;;;5.28;2.92;;;13.70;94.00;;;;;;5030282;28;20658;-76
2021/10/30 00:58:05;;;;;;;5.15;2.72;;;13.70;94.00;;;;;;5044932;28;20104;-76
2021/10/30 01:00:31;;;;;;;3.10;2.80;;;13.70;94.10;;;;;;5048450;28;20640;-76
2021/10/30 01:02:57;;;;;;;4.90;3.20;;;13.60;94.10;;;;;;5028145;28;20041;-76
2021/10/30 01:05:22;;;;;;;3.72;3.42;;;13.60;94.10;;;;;;5042112;28;20496;-76
2021/10/30 01:07:49;;;;;;;8.05;4.05;;;13.60;94.10;;;;;;5028304;28;20117;-76
2021/10/30 01:10:15;;;;;;;4.97;3.80;;;13.60;94.40;;;;;;5014599;28;20127;-76
2021/10/30 01:12:41;;;;;;;5.28;4.03;;;13.60;94.20;;;;;;5037107;28;20108;-75
2021/10/30 01:15:07;;;;;;;5.72;3.83;;;13.60;94.10;;;;;;5013631;28;20187;-76
2021/10/30 01:17:33;;;;;;;4.53;3.30;;;13.60;94.10;;;;;;5042338;28;20064;-75
2021/10/30 01:19:59;;;;;;;6.28;3.72;;;13.60;94.20;;;;;;5031036;28;20032;-76
2021/10/30 01:22:25;;;;;;;4.25;3.30;;;13.50;94.20;;;;;;5009176;28;20038;-76
2021/10/30 01:24:51;;;;;;;6.65;3.70;;;13.50;94.20;;;;;;5132457;27;20098;-76
2021/10/30 01:27:19;;;;;;;9.32;3.70;;;13.50;94.20;;;;;;5084701;27;20033;-76
2021/10/30 01:29:49;;;;;;;6.50;4.13;;;13.50;94.20;;;;;;5048108;28;20045;-76
2021/10/30 01:32:17;;;;;;;7.10;4.28;;;13.50;94.20;;;;;;5022798;28;20037;-75
2021/10/30 01:34:43;;;;;;;5.83;3.73;;;13.50;94.20;;;;;;5047626;28;20029;-76
2021/10/30 01:37:08;;;;;;;6.72;4.45;;;13.50;94.30;;;;;;5024995;28;20082;-75
2021/10/30 01:39:34;;;;;;;5.88;4.40;;;13.50;94.30;;;;;;5045266;28;20045;-75
2021/10/30 01:42:00;;;;;;;6.72;4.20;;;13.50;94.30;;;;;;5009073;28;20041;-76
2021/10/30 01:44:26;;;;;;;6.10;4.70;;;13.50;94.30;;;;;;5018670;28;20537;-75
2021/10/30 01:47:01;;;;;;;8.50;4.63;;;13.50;94.30;;;;;;5030037;28;20038;-76
2021/10/30 01:49:28;;;;;;;10.35;5.22;;;13.50;94.30;;;;;;5030481;28;20056;-75
2021/10/30 01:51:54;;;;;;;6.60;4.65;;;13.50;94.30;;;;;;5033249;28;20671;-75
2021/10/30 01:54:20;;;;;;;6.47;4.28;;;13.40;94.30;;;;;;5048061;28;20055;-76
2021/10/30 01:56:45;;;;;;;6.30;4.40;;;13.40;94.30;;;;;;5025702;28;20057;-75
2021/10/30 01:59:11;;;;;;;6.45;4.20;;;13.40;94.30;;;;;;5028543;28;20048;-75
2021/10/30 02:01:37;;;;;;;6.32;4.72;;;13.40;94.30;;;;;;5027939;28;20491;-75
2021/10/30 02:04:03;;;;;;;7.00;3.97;;;13.40;94.30;;;;;;5047269;28;20036;-75
2021/10/30 02:06:28;;;;;;;7.75;4.70;;;13.40;94.30;;;;;;5046156;28;20029;-76
2021/10/30 02:08:54;;;;;;;5.85;4.03;;;13.40;94.30;;;;;;5027938;28;20045;-76
2021/10/30 02:11:20;;;;;;;7.82;4.55;;;13.40;94.30;;;;;;5010251;28;20025;-76
2021/10/30 02:13:46;;;;;;;7.00;4.45;;;13.40;94.30;;;;;;5027070;28;20029;-75
2021/10/30 02:16:13;;;;;;;7.22;4.10;;;13.30;94.20;;;;;;5027524;28;20113;-76
2021/10/30 02:18:40;;;;;;;8.18;4.38;;;13.30;94.20;;;;;;5013082;28;20039;-75
2021/10/30 02:21:06;;;;;;;6.05;4.57;;;13.30;94.20;;;;;;5047557;28;20067;-76
2021/10/30 02:23:31;;;;;;;6.55;4.88;;;13.30;94.20;;;;;;5047531;28;20065;-76
2021/10/30 02:25:57;;;;;;;6.90;4.68;;;13.30;94.20;;;;;;5019764;28;20041;-75
2021/10/30 02:28:23;;;;;;;8.93;4.50;;;13.30;94.20;;;;;;5010001;28;20061;-76
2021/10/30 02:30:49;;;;;;;6.20;4.22;;;13.20;94.10;;;;;;5015483;28;20030;-75
2021/10/30 02:33:14;;;;;;;9.07;4.28;;;13.30;94.10;;;;;;5047052;28;20065;-76
2021/10/30 02:35:40;;;;;;;10.60;4.75;;;13.20;94.10;;;;;;5013325;28;20068;-75
2021/10/30 02:38:06;;;;;;;5.18;4.53;;;13.20;94.00;;;;;;5047408;28;20529;-76
2021/10/30 02:40:32;;;;;;;6.40;4.13;;;13.20;94.00;;;;;;5030891;28;20113;-75
2021/10/30 02:42:57;;;;;;;7.90;4.53;;;13.20;94.00;;;;;;5041816;28;20025;-76
2021/10/30 02:45:23;;;;;;;9.40;4.72;;;13.20;94.00;;;;;;5018474;28;20036;-75
2021/10/30 02:47:49;;;;;;;9.48;4.70;;;13.20;93.90;;;;;;5018269;28;20033;-76
2021/10/30 02:50:15;;;;;;;7.53;4.45;;;13.20;93.90;;;;;;5014968;28;20049;-76
2021/10/30 02:52:41;;;;;;;9.27;4.88;;;13.10;93.90;;;;;;5021155;28;20137;-76
2021/10/30 02:55:08;;;;;;;8.48;4.80;;;13.10;93.80;;;;;;5014345;28;20740;-76
2021/10/30 02:57:33;;;;;;;8.57;4.03;;;13.10;93.80;;;;;;5022203;28;20591;-76
2021/10/30 02:59:59;;;;;;;8.40;5.00;;;13.10;93.70;;;;;;4996586;28;20053;-76
2021/10/30 03:02:25;;;;;;;6.50;4.93;;;13.10;93.70;;;;;;5006483;28;20111;-76
2021/10/30 03:04:51;;;;;;;11.20;5.60;;;13.10;93.60;;;;;;5014681;28;20121;-75
2021/10/30 03:07:18;;;;;;;9.00;4.80;;;13.10;93.50;;;;;;5036972;28;20033;-75
2021/10/30 03:09:49;;;;;;;11.45;4.82;;;13.10;93.50;;;;;;5013483;28;20131;-76
2021/10/30 03:12:15;;;;;;;8.98;5.00;;;13.10;93.40;;;;;;5037390;28;20057;-75
2021/10/30 03:14:40;;;;;;;9.00;4.93;;;13.10;93.30;;;;;;5012880;28;20084;-75
2021/10/30 03:17:06;;;;;;;6.22;4.45;;;13.10;93.30;;;;;;5015557;28;20035;-75
2021/10/30 03:19:32;;;;;;;7.13;4.63;;;13.00;93.10;;;;;;4996565;28;20087;-75
2021/10/30 03:21:58;;;;;;;6.78;4.90;;;13.10;93.20;;;;;;5034186;28;20068;-75
2021/10/30 03:24:24;;;;;;;10.63;4.28;;;13.00;93.10;;;;;;5012815;28;20040;-76
2021/10/30 03:26:49;;;;;;;12.27;4.78;;;13.00;93.20;;;;;;5034630;28;20037;-76
2021/10/30 03:29:15;;;;;;;7.97;4.50;;;13.00;93.20;;;;;;5030286;28;20501;-76
2021/10/30 03:31:41;;;;;;;5.60;4.05;;;13.00;93.20;;;;;;5016518;28;20475;-76
2021/10/30 03:34:06;;;;;;;9.27;4.75;;;13.00;93.20;;;;;;5027770;28;20048;-76
2021/10/30 03:36:32;;;;;;;10.73;4.65;;;13.00;93.10;;;;;;5029327;28;20041;-75
2021/10/30 03:38:57;;;;;;;6.80;4.63;;;13.00;93.10;;;;;;5028820;28;20029;-75
2021/10/30 03:41:23;;;;;;;8.77;4.70;;;13.00;93.00;;;;;;5030186;28;20474;-75
2021/10/30 03:43:49;;;;;;;10.05;4.50;;;13.00;93.00;;;;;;5010825;28;20116;-75
2021/10/30 03:46:14;;;;;;;7.60;4.82;;;12.90;92.90;;;;;;5000929;28;20103;-76
2021/10/30 03:48:40;;;;;;;9.27;4.68;;;12.90;92.90;;;;;;5012003;28;20073;-75
2021/10/30 03:51:05;;;;;;;9.50;4.93;;;12.90;92.80;;;;;;5042204;28;20025;-76
2021/10/30 03:53:31;;;;;;;9.60;5.10;;;12.90;92.80;;;;;;5031612;28;20036;-76
2021/10/30 03:55:57;;;;;;;8.95;5.07;;;12.90;92.80;;;;;;5019239;28;20033;-76
2021/10/30 03:58:22;;;;;;;9.25;5.00;;;12.90;92.70;;;;;;5012063;28;20029;-76
2021/10/30 04:00:48;;;;;;;8.93;4.80;;;12.90;92.70;;;;;;5029464;28;20082;-76
2021/10/30 04:03:14;;;;;;;7.07;4.28;;;12.90;92.70;;;;;;5011973;28;20086;-75
2021/10/30 04:05:39;;;;;;;5.50;4.28;;;12.90;92.70;;;;;;5030299;28;20064;-76
2021/10/30 04:08:07;;;;;;;8.23;4.32;;;12.90;92.70;;;;;;5011197;28;20121;-76
2021/10/30 04:10:33;;;;;;;9.00;4.55;;;12.90;92.80;;;;;;5030622;28;20025;-75
2021/10/30 04:12:59;;;;;;;7.85;4.70;;;12.90;92.80;;;;;;4995469;28;20021;-75
2021/10/30 04:15:24;;;;;;;6.85;4.45;;;12.80;92.80;;;;;;5013513;28;20059;-75
2021/10/30 04:17:50;;;;;;;8.68;4.55;;;12.90;92.90;;;;;;5029238;28;20117;-76
2021/10/30 04:20:15;;;;;;;9.55;4.53;;;12.90;92.90;;;;;;5014393;28;20037;-75
2021/10/30 04:22:41;;;;;;;6.70;4.60;;;12.80;93.00;;;;;;4995680;28;20033;-75
2021/10/30 04:25:07;;;;;;;11.57;5.10;;;12.80;93.10;;;;;;5032338;28;20036;-76
2021/10/30 04:27:33;;;;;;;6.80;4.43;;;12.80;93.10;;;;;;5029322;28;20057;-75
2021/10/30 04:29:58;;;;;;;11.52;4.82;;;12.80;93.10;;;;;;5015458;28;20382;-75
2021/10/30 04:32:24;;;;;;;11.48;4.60;;;12.70;93.20;;;;;;5016289;28;20898;-76
2021/10/30 04:34:57;;;;;;;9.70;4.70;;;12.70;93.20;;;;;;5032748;28;20032;-75
2021/10/30 04:37:22;;;;;;;6.88;4.80;;;12.70;93.30;;;;;;5032516;28;20030;-75
2021/10/30 04:39:51;;;;;;;8.75;4.72;;;12.70;93.40;;;;;;5012804;28;20124;-76
2021/10/30 04:42:17;;;;;;;8.25;5.45;;;12.70;93.40;;;;;;5029292;28;20033;-76
2021/10/30 04:44:44;;;;;;;8.25;4.65;;;12.60;93.50;;;;;;5030538;28;20038;-75
2021/10/30 04:47:10;;;;;;;8.80;4.80;;;12.60;93.60;;;;;;5032127;28;20038;-76
2021/10/30 04:49:36;;;;;;;6.35;4.63;;;12.60;93.60;;;;;;5012983;28;20092;-76
2021/10/30 04:52:03;;;;;;;13.52;5.18;;;12.60;93.70;;;;;;5029637;28;20063;-76
2021/10/30 04:54:29;;;;;;;8.07;4.50;;;12.60;93.80;;;;;;5029618;28;20029;-76
2021/10/30 04:56:55;;;;;;;7.35;4.57;;;12.50;93.80;;;;;;5031208;28;20031;-76
2021/10/30 04:59:21;;;;;;;9.63;4.93;;;12.50;94.10;;;;;;5011349;28;20037;-76
2021/10/30 05:01:46;;;;;;;7.60;4.72;;;12.50;93.90;;;;;;5011213;28;20025;-75
2021/10/30 05:04:12;;;;;;;8.35;5.13;;;12.50;94.00;;;;;;5029346;28;20026;-76
2021/10/30 05:06:38;;;;;;;12.65;5.10;;;12.50;94.00;;;;;;5030209;28;20065;-75
2021/10/30 05:09:04;;;;;;;10.15;5.10;;;12.50;94.10;;;;;;5038270;28;20090;-75
2021/10/30 05:11:29;;;;;;;9.43;5.00;;;12.50;94.20;;;;;;5035372;28;20059;-75
2021/10/30 05:13:55;;;;;;;9.38;5.18;;;12.50;94.20;;;;;;5048747;28;20056;-75
2021/10/30 05:16:20;;;;;;;14.05;5.38;;;12.50;94.30;;;;;;5042250;28;20028;-76
2021/10/30 05:18:46;;;;;;;7.35;5.07;;;12.50;94.30;;;;;;5038235;28;20033;-75
2021/10/30 05:21:12;;;;;;;10.70;5.32;;;12.50;94.40;;;;;;5015687;28;20029;-76
2021/10/30 05:23:39;;;;;;;9.30;4.97;;;12.40;94.40;;;;;;5023864;28;20520;-75
2021/10/30 05:26:05;;;;;;;11.93;5.95;;;12.40;94.50;;;;;;5032488;28;20033;-76
2021/10/30 05:28:30;;;;;;;9.90;5.30;;;12.40;94.50;;;;;;5006824;28;20426;-76
2021/10/30 05:30:56;;;;;;;8.10;4.88;;;12.40;94.50;;;;;;5036609;28;20033;-75
2021/10/30 05:33:22;;;;;;;13.68;6.40;;;12.40;94.60;;;;;;5040881;27;20036;-75
2021/10/30 05:35:47;;;;;;;11.05;5.93;;;12.40;94.60;;;;;;5030782;28;20346;-76
2021/10/30 05:38:16;;;;;;;8.80;5.78;;;12.40;94.70;;;;;;5044712;28;20032;-76
2021/10/30 05:40:42;;;;;;;9.23;6.25;;;12.40;94.70;;;;;;5035281;28;20394;-76
2021/10/30 05:43:07;;;;;;;9.70;5.82;;;12.40;94.80;;;;;;5046017;28;20117;-76
2021/10/30 05:45:33;;;;;;;10.40;5.85;;;12.40;94.80;;;;;;5033998;28;20029;-75
2021/10/30 05:47:59;;;;;;;11.80;6.72;;;12.40;94.90;;;;;;5025300;28;20033;-76
2021/10/30 05:50:25;;;;;;;9.90;5.85;;;12.40;94.90;;;;;;5029613;28;20478;-75
2021/10/30 05:52:52;;;;;;;9.32;5.82;;;12.40;94.90;;;;;;5025548;28;20073;-76
2021/10/30 05:55:18;;;;;;;10.82;5.90;;;12.30;94.90;;;;;;5020826;28;20056;-76
2021/10/30 05:57:43;;;;;;;12.52;6.13;;;12.30;95.00;;;;;;5048896;28;20046;-76
2021/10/30 06:00:10;;;;;;;11.15;6.00;;;12.30;95.00;;;;;;5008564;28;20042;-76
2021/10/30 06:02:35;;;;;;;14.73;6.40;;;12.30;95.10;;;;;;5008761;28;20052;-76
2021/10/30 06:05:01;;;;;;;16.77;5.95;;;12.30;95.10;;;;;;5008358;28;20030;-76
2021/10/30 06:07:27;;;;;;;9.77;5.72;;;12.30;95.10;;;;;;4990936;28;20079;-76
2021/10/30 06:09:52;;;;;;;11.65;5.53;;;12.30;95.40;;;;;;5007893;28;20030;-76
2021/10/30 06:12:18;;;;;;;10.20;5.80;;;12.30;95.10;;;;;;5022347;28;20020;-76
2021/10/30 06:14:43;;;;;;;10.88;5.93;;;12.30;95.10;;;;;;5018847;28;20076;-76
2021/10/30 06:17:09;;;;;;;10.02;6.40;;;12.30;95.20;;;;;;5015460;28;20061;-76
2021/10/30 06:19:35;;;;;;;9.23;5.65;;;12.30;95.20;;;;;;5028831;28;20077;-76
2021/10/30 06:22:00;;;;;;;12.65;6.10;;;12.30;95.20;;;;;;5068545;28;20061;-76
2021/10/30 06:24:26;;;;;;;8.75;5.30;;;12.30;95.20;;;;;;5114212;28;20037;-76
2021/10/30 06:26:52;;;;;;;12.35;6.00;;;12.40;95.20;;;;;;5060841;27;20063;-76
2021/10/30 06:29:17;;;;;;;9.52;5.80;;;12.40;95.20;;;;;;5010289;28;20394;-76
2021/10/30 06:31:43;;;;;;;10.70;5.03;;;12.40;95.20;;;;;;4992913;28;20037;-76
2021/10/30 06:34:10;;;;;;;8.43;5.47;;;12.40;95.20;;;;;;5009303;28;20034;-76
2021/10/30 06:36:36;;;;;;;7.35;5.20;;;12.40;95.20;;;;;;5008924;28;20409;-76
2021/10/30 06:39:02;;;;;;;9.15;5.22;;;12.40;95.20;;;;;;5012335;28;20030;-76
2021/10/30 06:41:28;;;;;;;10.45;5.40;;;12.40;95.20;;;;;;5023304;28;20470;-76
2021/10/30 06:43:53;;;;;;;8.30;5.13;;;12.40;95.20;;;;;;5044281;28;20082;-76
2021/10/30 06:46:19;;;;;;;11.57;5.28;;;12.50;95.20;;;;;;5011656;28;20026;-76
2021/10/30 06:48:47;;;;;;;11.18;5.15;;;12.50;95.20;;;;;;5013102;28;20167;-76
2021/10/30 06:51:15;;;;;;;8.60;4.97;;;12.40;95.20;;;;;;5014131;28;20034;-76
2021/10/30 06:53:41;;;;;;;10.80;5.13;;;12.50;95.20;;;;;;5031990;28;20044;-76
2021/10/30 06:56:07;;;;;;;7.68;5.00;;;12.50;95.20;;;;;;5077427;27;20015;-76
2021/10/30 06:58:33;;;;;;;10.63;5.32;;;12.50;95.20;;;;;;5152286;27;20065;-76
2021/10/30 07:00:59;;;;;;;8.05;5.20;;;12.50;95.20;;;;;;5084259;27;20063;-76
2021/10/30 07:03:25;;;;;;;7.32;4.70;;;12.50;95.20;;;;;;5031647;28;20530;-76
2021/10/30 07:05:51;;;;;;;9.13;4.93;;;12.50;95.20;;;;;;5016211;28;20054;-76
2021/10/30 07:08:17;;;;;;;7.60;5.20;;;12.50;95.20;;;;;;5031837;28;20108;-75
2021/10/30 07:10:43;;;;;;;11.75;6.03;;;12.50;95.30;;;;;;5017392;28;20044;-75
2021/10/30 07:13:08;;;;;;;9.63;5.07;;;12.50;95.30;;;;;;5007457;28;20477;-75
2021/10/30 07:15:34;;;;;;;8.50;5.13;;;12.50;95.30;;;;;;5015833;28;20450;-75
2021/10/30 07:18:00;;;;;;;9.65;4.80;;;12.50;95.30;;;;;;5034062;28;20055;-75
2021/10/30 07:20:25;;;;;;;9.70;4.85;;;12.50;95.60;;;;;;5017207;28;20344;-75
2021/10/30 07:22:52;;;;;;;6.32;5.05;;;12.50;95.30;;;;;;5013742;28;20037;-76
2021/10/30 07:25:22;;;;;;;8.75;4.90;;;12.50;95.30;;;;;;5040656;28;20425;-75
2021/10/30 07:27:49;;;;;;;6.55;4.55;;;12.60;95.60;;;;;;5019191;28;20029;-75
2021/10/30 07:30:16;;;;;;;9.25;4.78;;;12.60;95.30;;;;;;5022700;28;20030;-75
2021/10/30 07:32:42;;;;;;;9.27;4.20;;;12.60;95.30;;;;;;5028295;28;20102;-75
2021/10/30 07:35:09;;;;;;;10.55;5.20;;;12.60;95.30;;;;;;5019710;28;20211;-76
2021/10/30 07:37:35;;;;;;;9.27;5.18;;;12.60;95.30;;;;;;4997387;28;20040;-76
2021/10/30 07:40:02;;;;;;;7.00;4.65;;;12.60;95.30;;;;;;5031532;28;20037;-76
2021/10/30 07:42:28;;;;;;;6.88;4.75;;;12.60;95.30;;;;;;5030983;28;20083;-76
2021/10/30 07:44:54;;;;;;;9.77;4.88;;;12.60;95.30;;;;;;5031035;28;20831;-76
2021/10/30 07:47:21;;;;;;;6.03;4.72;;;12.70;95.30;;;;;;5013482;28;20537;-76
2021/10/30 07:49:47;;;;;;;5.57;4.70;;;12.70;95.30;;;;;;5013385;28;20078;-76
2021/10/30 07:52:13;;;;;;;11.98;4.32;;;12.70;95.30;;;;;;5009214;28;20062;-78
2021/10/30 07:54:39;;;;;;;8.60;4.20;;;12.70;95.30;;;;;;5043086;28;20486;-77
2021/10/30 07:57:06;;;;;;;8.68;4.93;;;12.70;95.30;;;;;;5042342;28;20824;-77
2021/10/30 07:59:32;;;;;;;7.22;4.28;;;12.80;95.30;;;;;;5010265;28;20053;-77
2021/10/30 08:02:02;;;;;;;7.30;4.30;;;12.80;95.30;;;;;;5042875;28;20033;-78
2021/10/30 08:04:29;;;;;;;6.50;3.95;;;12.80;95.30;;;;;;5042608;28;20592;-78
2021/10/30 08:06:55;;;;;;;6.45;4.22;;;12.80;95.30;;;;;;5027515;28;20034;-78
2021/10/30 08:09:20;;;;;;;6.57;4.38;;;12.80;95.30;;;;;;5027586;28;20033;-78
2021/10/30 08:11:46;;;;;;;8.10;4.32;;;12.80;95.30;;;;;;5026553;28;20028;-77
2021/10/30 08:14:12;;;;;;;10.38;4.43;;;12.90;95.30;;;;;;5026104;28;20026;-78
2021/10/30 08:16:38;;;;;;;5.57;4.47;;;12.80;95.30;;;;;;5037761;28;20026;-78
2021/10/30 08:19:04;;;;;;;7.15;4.38;;;12.80;95.30;;;;;;5014126;28;20026;-78
2021/10/30 08:21:30;;;;;;;6.43;3.92;;;12.90;95.30;;;;;;5050211;28;20096;-78
2021/10/30 08:23:57;;;;;;;7.35;4.00;;;12.90;95.30;;;;;;5033989;28;20116;-78
2021/10/30 08:26:23;;;;;;;8.15;3.85;;;12.90;95.30;;;;;;5036870;28;20031;-78
2021/10/30 08:28:49;;;;;;;5.88;4.07;;;12.90;95.30;;;;;;5031097;28;20036;-78
2021/10/30 08:31:15;;;;;;;9.68;4.40;;;12.90;95.30;;;;;;5048454;28;20104;-78
2021/10/30 08:33:41;;;;;;;7.72;3.80;;;13.00;95.30;;;;;;5013367;28;20049;-79
2021/10/30 08:36:07;;;;;;;5.68;3.90;;;13.00;95.30;;;;;;5030946;28;20026;-78
2021/10/30 08:38:33;;;;;;;5.65;3.67;;;13.00;95.30;;;;;;5013577;28;20025;-78
2021/10/30 08:41:00;;;;;;;10.40;4.22;;;13.00;95.30;;;;;;5031311;28;20024;-78
2021/10/30 08:43:26;;;;;;;7.68;3.97;;;13.10;95.30;;;;;;5031151;28;20577;-78
2021/10/30 08:45:54;;;;;;;5.20;3.80;;;13.10;95.30;;;;;;5031215;28;20180;-78
2021/10/30 08:48:24;;;;;;;5.43;3.85;;;13.10;95.30;;;;;;5013452;28;20056;-78
2021/10/30 08:50:51;;;;;;;4.30;3.47;;;13.10;95.30;;;;;;5013663;28;20129;-78
2021/10/30 08:53:18;;;;;;;4.28;3.40;;;13.10;95.30;;;;;;5031031;28;20071;-78
2021/10/30 08:55:44;;;;;;;6.28;3.78;;;13.10;95.20;;;;;;5030670;28;20040;-78
2021/10/30 08:58:13;;;;;;;7.20;3.95;;;13.20;95.30;;;;;;5026178;28;20022;-77
2021/10/30 09:00:51;;;;;;;5.50;3.38;;;13.20;95.30;;;;;;5050395;28;20029;-78
2021/10/30 09:03:19;;;;;;;5.30;3.70;;;13.20;95.30;;;;;;5022222;27;20030;-78
2021/10/30 09:05:48;;;;;;;4.30;3.70;;;13.20;95.50;;;;;;5082117;27;20283;-78
2021/10/30 09:08:14;;;;;;;5.13;3.58;;;13.20;95.30;;;;;;5040206;27;20025;-79
2021/10/30 09:10:46;;;;;;;5.05;3.83;;;13.20;95.30;;;;;;5012850;28;20428;-78
2021/10/30 09:13:13;;;;;;;5.88;3.40;;;13.20;95.30;;;;;;5030967;28;20022;-78
2021/10/30 09:15:47;;;;;;;4.28;3.53;;;13.20;95.30;;;;;;5013026;28;20030;-78
2021/10/30 09:18:23;;;;;;;5.53;3.60;;;13.30;95.30;;;;;;5030615;28;20101;-78
2021/10/30 09:20:51;;;;;;;7.15;3.72;;;13.30;95.30;;;;;;5033189;28;20466;-78
2021/10/30 09:23:20;;;;;;;6.70;3.83;;;13.30;95.30;;;;;;5048763;28;20066;-78
2021/10/30 09:25:50;;;;;;;;;;;13.30;95.30;;;;;;4996778;28;20030;-78
2021/10/30 09:28:20;;;;;;;7.38;3.92;;;13.30;95.20;;;;;;5012213;28;19909;-78
2021/10/30 09:30:54;;;;;;;6.75;4.18;;;13.30;95.30;;;;;;5029738;28;20443;-78
2021/10/30 09:33:19;;;;;;;6.45;3.58;;;13.30;95.30;;;;;;5029399;28;20025;-78
2021/10/30 09:35:46;;;;;;;7.78;3.95;;;13.30;95.30;;;;;;5029418;28;20030;-78
2021/10/30 09:38:34;;;;;;;7.70;3.85;;;13.40;95.40;;;;;;5011894;28;20462;-78
2021/10/30 09:41:01;;;;;;;5.95;3.58;;;13.40;95.40;;;;;;5036517;28;20494;-78
2021/10/30 09:43:27;;;;;;;9.20;4.95;;;13.40;95.40;;;;;;4996200;28;20501;-78
2021/10/30 09:46:05;;;;;;;5.93;4.30;;;13.50;95.40;;;;;;5011842;28;20037;-78
2021/10/30 09:48:32;;;;;;;10.18;4.22;;;13.40;95.40;;;;;;5027928;28;20108;-78
2021/10/30 09:51:02;;;;;;;6.82;4.65;;;13.50;95.40;;;;;;5027678;28;20117;-78
2021/10/30 09:53:27;;;;;;;10.02;4.45;;;13.50;95.40;;;;;;5011436;28;20033;-78
2021/10/30 09:55:59;;;;;;;6.85;4.28;;;13.50;95.50;;;;;;5034517;28;20390;-78
2021/10/30 09:58:34;;;;;;;5.53;4.28;;;13.50;95.50;;;;;;5037257;28;20092;-78
2021/10/30 10:01:03;;;;;;;7.65;3.80;;;13.50;95.50;;;;;;5029470;28;20394;-78
2021/10/30 10:03:30;;;;;;;8.95;4.07;;;13.50;95.50;;;;;;5013805;28;20029;-78
2021/10/30 10:05:56;;;;;;;5.93;4.15;;;13.50;95.50;;;;;;5029622;28;20112;-78
2021/10/30 10:08:24;;;;;;;8.65;4.03;;;13.60;95.50;;;;;;5098630;27;20066;-78
2021/10/30 10:10:58;;;;;;;7.15;4.30;;;13.60;95.50;;;;;;5015075;28;20051;-77
2021/10/30 10:13:24;;;;;;;6.22;3.97;;;13.60;95.50;;;;;;5030588;28;20048;-78
2021/10/30 10:15:51;;;;;;;5.10;3.88;;;13.50;95.40;;;;;;5020579;28;20064;-78
2021/10/30 10:18:18;;;;;;;5.05;3.72;;;13.60;95.40;;;;;;5030878;28;20537;-78
2021/10/30 10:20:46;;;;;;;6.35;3.70;;;13.60;95.40;;;;;;5008004;28;20578;-78
2021/10/30 10:23:18;;;;;;;6.45;3.85;;;13.60;95.40;;;;;;5029532;28;20124;-78
2021/10/30 10:25:52;;;;;;;5.07;3.85;;;13.60;95.40;;;;;;5028881;28;20037;-78
2021/10/30 10:28:33;;;;;;;9.80;3.90;;;13.60;95.40;;;;;;5029686;28;20093;-78
2021/10/30 10:31:01;;;;;;;7.22;3.70;;;13.60;95.40;;;;;;5059085;27;20370;-78
2021/10/30 10:33:28;;;;;;;6.90;3.35;;;13.60;95.50;;;;;;5011140;28;20041;-78
2021/10/30 10:36:20;;;;;;;4.78;3.40;;;13.60;95.50;;;;;;5026422;28;20052;-78
2021/10/30 10:38:58;;;;;;;4.43;3.35;;;13.60;95.50;;;;;;5028859;28;20386;-78
2021/10/30 10:41:44;;;;;;;4.82;3.35;;;13.60;95.50;;;;;;5032371;28;20030;-77
2021/10/30 10:44:36;;;;;;;6.13;3.70;;;13.60;95.50;;;;;;5032511;28;20407;-78
2021/10/30 10:47:03;;;;;;;4.53;3.58;;;13.60;95.50;;;;;;5028554;28;20026;-77
2021/10/30 10:54:53;;;;;;;6.32;4.05;;;13.70;95.40;;;;;;5027779;28;20033;-78
2021/10/30 10:57:27;;;;;;;6.13;4.22;;;13.70;95.40;;;;;;5017080;28;20028;-78
2021/10/30 11:00:10;;;;;;;5.45;3.40;;;13.70;95.30;;;;;;5019183;28;20040;-78
2021/10/30 11:02:51;;;;;;;5.78;3.42;;;13.70;95.30;;;;;;5026515;28;20104;-78
2021/10/30 11:05:22;;;;;;;6.78;3.60;;;13.70;95.30;;;;;;5031156;28;20538;-78
2021/10/30 11:07:51;;;;;;;7.38;3.85;;;13.70;95.30;;;;;;5013948;28;20112;-78
2021/10/30 11:10:33;;;;;;;6.78;3.50;;;13.70;95.30;;;;;;5034750;28;20029;-78
2021/10/30 11:13:01;;;;;;;4.53;3.42;;;13.70;95.30;;;;;;5025573;28;20025;-78
2021/10/30 11:15:40;;;;;;;4.93;3.10;;;13.80;95.30;;;;;;5051440;28;20017;-78
2021/10/30 11:18:12;;;;;;;4.18;2.97;;;13.80;95.30;;;;;;5014563;28;20509;-76
2021/10/30 11:20:49;;;;;;;4.93;3.70;;;13.80;95.20;;;;;;5014654;28;20036;-76
2021/10/30 11:23:22;;;;;;;6.63;3.63;;;13.90;95.20;;;;;;5037266;27;20722;-76
2021/10/30 11:25:54;;;;;;;7.22;4.07;;;13.90;95.20;;;;;;5030924;28;20026;-76
2021/10/30 11:28:23;;;;;;;7.30;4.05;;;13.90;95.20;;;;;;5013368;28;20023;-76
2021/10/30 11:30:49;;;;;;;5.93;3.90;;;14.00;95.20;;;;;;5030708;28;20190;-76
2021/10/30 11:33:29;;;;;;;6.25;3.38;;;14.00;95.20;;;;;;5029623;28;20112;-76
2021/10/30 11:36:15;;;;;;;4.63;3.17;;;14.00;95.20;;;;;;5030914;28;20022;-76
2021/10/30 11:38:46;;;;;;;6.03;3.33;;;14.00;95.10;;;;;;5029933;27;20363;-76
2021/10/30 11:41:17;;;;;;;5.88;3.10;;;14.10;95.10;;;;;;5012053;28;20402;-76
2021/10/30 11:43:47;;;;;;;5.50;2.55;;;14.10;95.10;;;;;;5030286;28;20061;-76
2021/10/30 11:46:18;;;;;;;6.07;2.83;;;14.10;95.00;;;;;;5011458;28;20030;-76
2021/10/30 11:48:49;;;;;;;6.15;2.80;;;14.10;95.00;;;;;;5010812;28;20042;-76
2021/10/30 11:51:19;;;;;;;5.38;3.15;;;14.10;95.00;;;;;;5011362;28;20040;-76
2021/10/30 11:53:47;;;;;;;4.07;2.88;;;14.10;95.00;;;;;;5027407;28;20040;-76
2021/10/30 11:56:14;;;;;;;3.40;2.83;;;14.20;95.20;;;;;;5032915;28;20033;-76
2021/10/30 11:58:48;;;;;;;3.42;2.13;;;14.20;94.90;;;;;;5029106;28;20033;-76
2021/10/30 12:01:37;;;;;;;3.60;2.45;;;14.20;94.90;;;;;;5031764;28;20034;-76
2021/10/30 12:04:05;;;;;;;3.40;2.38;;;14.20;94.80;;;;;;5028022;28;20371;-76
2021/10/30 12:06:33;;;;;;;2.60;1.80;;;14.30;94.70;;;;;;5029515;28;20036;-77
2021/10/30 12:09:01;;;;;;;4.57;1.92;;;14.30;94.70;;;;;;5029216;28;20623;-76
2021/10/30 12:11:29;;;;;;;4.82;1.80;;;14.30;94.60;;;;;;5036227;28;20470;-76
2021/10/30 12:13:59;;;;;;;2.97;1.88;;;14.30;94.50;;;;;;5030022;28;20087;-76
2021/10/30 12:16:26;;;;;;;5.70;2.20;;;14.30;94.50;;;;;;4998667;28;20083;-76
2021/10/30 12:18:53;;;;;;;2.88;1.70;;;14.30;94.50;;;;;;5036870;27;20028;-76
2021/10/30 12:21:19;;;;;;;1.95;1.77;;;14.30;94.20;;;;;;5012555;28;20116;-76
2021/10/30 12:24:05;;;;;;;2.10;1.42;;;14.30;94.10;;;;;;5043939;27;20485;-76
2021/10/30 12:26:51;;;;;;;3.25;1.27;;;14.30;94.10;;;;;;5014752;28;20118;-76
2021/10/30 12:29:18;;;;;;;3.80;1.50;;;14.40;94.00;;;;;;5027560;28;20130;-76
2021/10/30 12:32:02;;;;;;;3.92;1.67;;;14.40;93.70;;;;;;5033689;28;20033;-76
2021/10/30 12:34:30;;;;;;;4.57;1.35;;;14.50;93.40;;;;;;5027752;28;20481;-76
2021/10/30 12:37:23;;;;;;;2.20;1.02;;;14.50;93.30;;;;;;5012075;28;20496;-76
2021/10/30 12:39:56;;;;;;;2.05;1.50;;;14.60;93.00;;;;;;5024954;28;20060;-77
2021/10/30 12:42:21;;;;;;;4.32;1.50;;;14.60;93.20;;;;;;5026412;28;20347;-76
2021/10/30 12:44:50;;;;;;;2.60;1.40;;;14.60;93.20;;;;;;5026509;28;20044;-76
2021/10/30 12:47:16;;;;;;;2.80;1.33;;;14.60;93.30;;;;;;5008085;28;20044;-77
2021/10/30 12:49:43;;;;;;;4.07;1.20;;;14.60;93.10;;;;;;5026325;28;20402;-77
2021/10/30 12:52:14;;;;;;;2.58;1.50;;;14.60;93.10;;;;;;5013736;28;20033;-77
2021/10/30 12:54:50;;;;;;;2.38;1.02;;;14.60;93.00;;;;;;4994342;28;20029;-76